Latest Weather Observations for Warragul (Nilma North)

IDV60801

Issued at 10:22 am EDT Thursday 23 January 2020 (issued every 10 minutes, with the page automatically refreshed every 10 minutes)

About weather observations | Map of weather stations | Latest weather observations for VIC | Other Formats
Station Details ID: 085313 Name: NILMA NORTH (WARRAGUL) Lat: -38.13 Lon: 145.99 Height: 134.11 m
Data from the previous 72 hours. | See also: Recent months for locations in Victoria
Date/Time
EDT
Temp
°C
App
Temp
°C
Dew
Point
°C
Rel
Hum
%
Delta-T
°C
Wind Press
QNH
hPa
Press
MSL
hPa
Rain since
9am
mm
Dir  Spd
km/h
Gust
km/h
Spd
kts
Gust
kts
23/10:00am 13.9 14.0 13.9 100 0.0 W 6 9 3 5 997.3 996.9 0.2
23/09:30am 13.4 13.3 13.4 100 0.0 WSW 6 9 3 5 997.0 996.6 0.2
23/09:00am 13.0 13.9 13.0 100 0.0 CALM 0 0 0 0 996.9 996.5 35.4
23/08:30am 12.7 13.2 12.7 100 0.0 NE 2 4 1 2 996.4 996.0 35.2
23/08:00am 12.6 12.7 12.6 100 0.0 ENE 4 7 2 4 996.1 995.7 35.0
23/07:30am 12.3 11.7 12.3 100 0.0 ENE 7 11 4 6 996.5 996.1 34.8
23/07:00am 12.2 11.6 12.2 100 0.0 NE 7 11 4 6 996.6 996.2 32.8
23/06:30am 12.1 12.8 12.1 100 0.0 CALM 0 6 0 3 996.9 996.5 30.2
23/06:00am 12.5 11.2 12.5 100 0.0 W 11 17 6 9 997.8 997.4 27.4
23/05:30am 12.8 11.6 12.8 100 0.0 W 11 17 6 9 998.0 997.5 24.8
23/05:00am 13.6 11.9 13.6 100 0.0 W 15 22 8 12 996.9 996.5 19.4
23/04:30am 14.6 15.7 14.6 100 0.0 WNW 2 6 1 3 996.4 996.0 16.4
23/04:00am 14.7 14.1 14.7 100 0.0 W 11 15 6 8 996.6 996.2 13.4
23/03:30am 14.7 15.5 14.7 100 0.0 WNW 4 6 2 3 997.1 996.7 11.8
23/03:00am 14.7 16.2 14.7 100 0.0 CALM 0 0 0 0 997.2 996.8 8.8
23/02:30am 15.0 15.5 15.0 100 0.0 WSW 6 9 3 5 997.7 997.3 6.6
23/02:00am 15.0 16.2 15.0 100 0.0 S 2 7 1 4 998.2 997.7 3.8
23/01:30am 15.5 16.0 15.5 100 0.0 WSW 7 13 4 7 998.5 998.0 3.2
23/01:00am 15.8 17.3 15.6 99 0.1 WSW 2 6 1 3 999.2 998.7 2.8
23/12:30am 15.8 17.6 15.5 98 0.2 CALM 0 2 0 1 999.4 998.9 2.6
23/12:18am 15.9 17.3 15.4 97 0.3 WNW 2 4 1 2 999.5 999.0 2.6
23/12:00am 16.1 15.5 15.6 97 0.3 W 13 19 7 10 1001.5 1001.1 1.4
 
Date/Time
EDT
Temp
°C
App
Temp
°C
Dew
Point
°C
Rel
Hum
%
Delta-T
°C
Wind Press
QNH
hPa
Press
MSL
hPa
Rain since
9am
mm
Dir  Spd
km/h
Gust
km/h
Spd
kts
Gust
kts
22/11:30pm 16.3 16.5 14.7 90 0.9 W 7 11 4 6 1001.0 1000.5 0.2
22/11:00pm 17.0 15.6 14.5 85 1.5 W 15 24 8 13 1001.0 1000.5 0.0
22/10:30pm 17.5 14.8 13.6 78 2.2 W 20 35 11 19 999.5 999.0 0.0
22/10:00pm 19.0 17.9 13.0 68 3.4 WSW 11 22 6 12 998.2 997.7 0.0
22/09:30pm 22.0 20.6 12.3 54 5.5 WSW 11 26 6 14 997.2 996.8 0.0
22/09:29pm 22.4 21.3 12.1 52 5.8 WSW 9 26 5 14 997.2 996.8 0.0
22/09:00pm 27.5 23.0 8.4 30 10.5 NNE 22 41 12 22 995.7 995.3 0.0
22/08:30pm 26.9 23.2 9.3 33 9.7 N 19 32 10 17 996.1 995.7 0.0
22/08:00pm 27.1 23.2 9.5 33 9.8 NNW 20 37 11 20 996.8 996.4 0.0
22/07:30pm 27.7 25.1 9.5 32 10.1 NNW 13 30 7 16 997.1 996.7 0.0
22/07:00pm 26.3 25.9 11.2 38 8.7 WNW 4 9 2 5 997.7 997.3 0.0
22/06:30pm 27.7 26.3 10.9 35 9.6 N 9 19 5 10 997.2 996.8 0.0
22/06:00pm 27.9 24.4 10.1 33 10.1 N 19 35 10 19 997.1 996.7 0.0
22/05:30pm 28.4 25.2 10.1 32 10.3 N 17 32 9 17 997.5 997.1 0.0
22/05:00pm 28.9 25.5 10.6 32 10.5 NNW 19 35 10 19 998.5 998.0 0.0
22/04:30pm 29.5 28.8 13.3 37 9.7 NNW 9 20 5 11 998.7 998.2 0.0
22/04:00pm 29.1 28.9 13.7 38 9.3 N 7 11 4 6 999.1 998.6 0.0
22/03:30pm 27.8 28.3 14.1 43 8.2 N 4 7 2 4 999.4 998.9 0.0
22/03:00pm 27.5 27.4 13.4 41 8.4 NNW 6 11 3 6 999.9 999.4 0.0
22/02:30pm 27.9 26.8 11.9 37 9.3 NNW 9 20 5 11 1000.3 999.8 0.0
22/02:00pm 28.5 27.8 12.0 36 9.7 NNW 7 19 4 10 1000.8 1000.3 0.0
22/01:30pm 27.7 25.8 11.7 37 9.3 NNW 13 20 7 11 1001.0 1000.5 0.0
22/01:00pm 28.8 25.8 11.8 35 9.9 NNW 19 37 10 20 1001.4 1001.0 0.0
22/12:30pm 28.4 26.0 11.5 35 9.8 NNW 15 32 8 17 1001.7 1001.3 0.0
22/12:00pm 27.4 25.5 13.0 41 8.5 N 15 26 8 14 1001.8 1001.4 0.0
22/11:30am 26.5 24.3 13.3 44 7.8 N 17 32 9 17 1002.5 1002.1 0.0
22/11:00am 25.0 23.0 13.9 50 6.6 N 17 35 9 19 1002.9 1002.5 0.0
22/10:30am 23.7 22.3 13.3 52 6.1 N 13 26 7 14 1003.5 1003.1 0.0
22/10:00am 21.2 21.9 16.0 72 3.2 E 7 11 4 6 1003.8 1003.4 0.0
22/09:30am 19.5 20.2 16.2 81 2.0 ESE 7 9 4 5 1004.0 1003.6 0.0
22/09:00am 18.1 18.5 15.4 84 1.6 ESE 7 9 4 5 1004.5 1004.1 0.0
22/08:30am 15.9 15.6 14.4 91 0.9 E 9 13 5 7 1004.8 1004.4 0.0
22/08:00am 14.0 13.0 13.5 97 0.3 E 11 15 6 8 1005.2 1004.8 0.0
22/07:30am 12.8 12.0 12.8 100 0.0 E 9 15 5 8 1005.3 1004.9 0.0
22/07:00am 12.6 11.3 12.6 100 0.0 E 11 17 6 9 1005.4 1005.0 0.0
22/06:30am 12.5 11.2 12.5 100 0.0 E 11 15 6 8 1005.5 1005.1 0.0
22/06:00am 12.4 11.1 12.4 100 0.0 E 11 17 6 9 1005.6 1005.2 0.0
22/05:30am 12.4 11.1 12.4 100 0.0 ENE 11 15 6 8 1005.5 1005.1 0.0
22/05:00am 12.4 10.7 12.4 100 0.0 E 13 20 7 11 1005.6 1005.2 0.0
22/04:30am 12.4 11.4 12.2 99 0.1 ENE 9 13 5 7 1006.0 1005.5 0.0
22/04:00am 12.6 11.6 12.3 98 0.2 E 9 20 5 11 1006.2 1005.7 0.0
22/03:30am 12.9 11.5 12.3 96 0.3 E 11 20 6 11 1006.2 1005.7 0.0
22/03:00am 13.3 11.6 12.4 94 0.5 ENE 13 22 7 12 1006.5 1006.0 0.0
22/02:30am 13.4 12.1 12.5 94 0.5 E 11 19 6 10 1006.8 1006.3 0.0
22/02:00am 13.6 12.7 12.7 94 0.5 E 9 17 5 9 1006.9 1006.4 0.0
22/01:30am 13.7 12.7 12.4 92 0.7 E 9 15 5 8 1007.0 1006.5 0.0
22/01:00am 13.9 13.0 12.6 92 0.7 E 9 13 5 7 1007.2 1006.7 0.0
22/12:30am 14.0 12.4 12.7 92 0.7 E 13 22 7 12 1007.4 1006.9 0.0
22/12:00am 14.1 12.3 12.1 88 1.1 E 13 19 7 10 1007.9 1007.5 0.0
 
Date/Time
EDT
Temp
°C
App
Temp
°C
Dew
Point
°C
Rel
Hum
%
Delta-T
°C
Wind Press
QNH
hPa
Press
MSL
hPa
Rain since
9am
mm
Dir  Spd
km/h
Gust
km/h
Spd
kts
Gust
kts
21/11:30pm 14.0 12.3 11.3 84 1.4 E 11 15 6 8 1008.3 1007.9 0.0
21/11:00pm 14.2 12.9 11.4 83 1.5 E 9 13 5 7 1008.6 1008.2 0.0
21/10:30pm 14.8 13.2 11.4 80 1.8 E 11 19 6 10 1008.3 1007.9 0.0
21/10:00pm 14.5 13.3 11.5 82 1.6 ENE 9 15 5 8 1008.5 1008.1 0.0
21/09:30pm 14.7 14.4 11.3 80 1.8 E 4 6 2 3 1008.4 1008.0 0.0
21/09:00pm 15.9 15.5 11.1 73 2.6 SE 4 6 2 3 1008.2 1007.8 0.0
21/08:30pm 18.2 18.6 11.3 64 3.8 CALM 0 4 0 2 1007.8 1007.4 0.0
21/08:00pm 19.3 18.9 11.1 59 4.5 SW 4 7 2 4 1007.8 1007.4 0.0
21/07:30pm 20.3 19.5 11.0 55 5.1 WSW 6 13 3 7 1007.6 1007.1 0.0
21/07:00pm 20.6 19.5 11.8 57 4.9 SW 9 17 5 9 1007.4 1006.9 0.0
21/06:30pm 20.7 19.1 11.6 56 5.1 WSW 11 19 6 10 1007.2 1006.7 0.0
21/06:00pm 20.9 19.1 12.1 57 5.0 WSW 13 26 7 14 1007.2 1006.7 0.0
21/05:30pm 20.8 19.3 12.0 57 4.9 SW 11 20 6 11 1007.2 1006.7 0.0
21/05:00pm 21.5 19.8 12.4 56 5.2 WSW 13 22 7 12 1007.4 1006.9 0.0
21/04:30pm 20.9 19.3 11.5 55 5.2 WSW 11 26 6 14 1007.6 1007.1 0.0
21/04:00pm 21.1 18.7 11.4 54 5.4 W 15 26 8 14 1008.0 1007.6 0.0
21/03:30pm 20.9 18.5 11.5 55 5.2 WSW 15 35 8 19 1008.2 1007.8 0.0
21/03:00pm 20.9 18.7 12.1 57 5.0 W 15 28 8 15 1008.6 1008.2 0.0
21/02:30pm 20.7 18.9 13.4 63 4.2 WNW 15 28 8 15 1008.9 1008.5 0.0
21/02:00pm 19.6 16.9 11.6 60 4.4 W 17 28 9 15 1008.8 1008.4 0.0
21/01:30pm 19.9 18.3 12.9 64 4.0 WNW 13 24 7 13 1009.2 1008.8 0.0
21/01:00pm 17.9 15.6 11.7 67 3.4 WNW 15 22 8 12 1009.5 1009.1 0.0
21/12:30pm 17.6 15.8 12.1 70 3.0 WNW 13 24 7 13 1009.9 1009.5 0.0
21/12:00pm 17.8 15.8 11.4 66 3.5 WNW 13 24 7 13 1010.0 1009.6 0.0
21/11:30am 16.5 14.3 12.1 75 2.4 WNW 15 24 8 13 1010.3 1009.9 0.0
21/11:00am 15.8 13.0 11.2 74 2.5 W 17 28 9 15 1010.5 1010.1 0.0
21/10:30am 15.8 13.0 9.9 68 3.1 WNW 15 26 8 14 1010.4 1010.0 0.0
21/10:00am 16.8 14.5 11.7 72 2.8 WNW 15 20 8 11 1010.2 1009.8 0.0
21/09:30am 15.6 13.2 11.4 76 2.3 WNW 15 28 8 15 1010.2 1009.8 0.0
21/09:00am 15.5 13.8 12.6 83 1.6 WNW 13 20 7 11 1010.2 1009.8 5.0
21/08:30am 14.5 12.2 11.7 83 1.5 WNW 15 20 8 11 1009.8 1009.4 5.0
21/08:00am 14.2 12.8 12.1 87 1.1 WNW 11 19 6 10 1009.4 1009.0 5.0
21/07:30am 13.8 12.3 11.8 88 1.1 WNW 11 17 6 9 1009.0 1008.6 5.0
21/07:00am 13.6 12.2 12.3 92 0.7 WNW 11 17 6 9 1008.6 1008.2 5.0
21/06:30am 13.6 11.9 12.5 93 0.6 W 13 19 7 10 1008.3 1007.9 5.0
21/06:00am 13.5 11.4 12.4 93 0.6 W 15 20 8 11 1008.0 1007.6 5.0
21/05:30am 13.8 11.7 12.5 92 0.7 W 15 20 8 11 1007.8 1007.4 5.0
21/05:00am 13.9 12.2 12.3 90 0.9 W 13 19 7 10 1007.5 1007.0 5.0
21/04:30am 13.9 11.9 12.8 93 0.6 W 15 22 8 12 1007.1 1006.6 5.0
21/04:00am 14.1 11.8 13.0 93 0.6 W 17 24 9 13 1006.9 1006.4 5.0
21/03:30am 14.2 12.5 13.7 97 0.3 W 15 20 8 11 1006.8 1006.3 5.0
21/03:00am 14.4 13.6 13.9 97 0.3 W 11 19 6 10 1006.8 1006.3 5.0
21/02:30am 14.4 13.1 13.8 96 0.3 W 13 20 7 11 1006.6 1006.1 5.0
21/02:00am 14.7 13.3 14.5 99 0.1 WSW 15 24 8 13 1006.7 1006.2 5.0
21/01:30am 15.1 15.0 14.9 99 0.1 WSW 9 17 5 9 1006.9 1006.4 5.0
21/01:00am 15.4 15.5 15.4 100 0.0 WSW 9 15 5 8 1006.9 1006.4 5.0
21/12:30am 15.8 16.3 15.6 99 0.1 WSW 7 15 4 8 1006.9 1006.4 5.0
21/12:00am 15.9 15.7 15.6 98 0.2 W 11 15 6 8 1007.0 1006.5 5.0
 
Date/Time
EDT
Temp
°C
App
Temp
°C
Dew
Point
°C
Rel
Hum
%
Delta-T
°C
Wind Press
QNH
hPa
Press
MSL
hPa
Rain since
9am
mm
Dir  Spd
km/h
Gust
km/h
Spd
kts
Gust
kts
20/11:30pm 15.9 16.0 15.6 98 0.2 W 9 13 5 7 1006.8 1006.3 5.0
20/11:00pm 15.9 16.6 15.6 98 0.2 W 6 7 3 4 1006.7 1006.2 5.0
20/10:30pm 15.9 16.9 15.4 97 0.3 WSW 4 7 2 4 1006.7 1006.2 5.0
20/10:00pm 15.8 16.9 15.5 98 0.2 SW 4 9 2 5 1006.4 1005.9 5.0
20/09:30pm 15.8 16.5 15.6 99 0.1 SW 6 11 3 6 1006.0 1005.5 5.0
20/09:00pm 16.1 17.0 16.1 100 0.0 WSW 6 9 3 5 1005.4 1005.0 5.0
20/08:30pm 16.2 17.4 16.0 99 0.1 W 4 6 2 3 1004.9 1004.5 5.0
20/08:00pm 16.6 18.0 16.3 98 0.2 SSW 4 7 2 4 1004.5 1004.1 3.6
20/07:30pm 16.8 16.7 16.0 95 0.5 S 11 15 6 8 1004.0 1003.6 2.8
20/07:00pm 17.0 16.2 16.0 94 0.6 S 15 24 8 13 1003.8 1003.4 2.8
20/06:30pm 17.6 18.3 17.0 96 0.4 SSE 9 13 5 7 1003.4 1003.0 2.8
20/06:00pm 17.8 18.3 17.5 98 0.2 S 11 17 6 9 1003.1 1002.7 2.6
20/05:30pm 18.3 19.4 18.1 99 0.1 S 9 13 5 7 1002.9 1002.5 2.4
20/05:00pm 18.4 20.0 18.2 99 0.1 S 7 9 4 5 1002.7 1002.3 1.6
20/04:30pm 18.3 19.4 18.1 99 0.1 E 9 13 5 7 1002.7 1002.3 1.4
20/04:00pm 19.9 20.6 18.0 89 1.2 SE 11 15 6 8 1002.6 1002.2 0.0
20/03:30pm 20.5 20.9 17.3 82 2.0 SE 11 17 6 9 1002.7 1002.3 0.0
20/03:00pm 19.8 19.3 16.8 83 1.8 E 15 20 8 11 1002.8 1002.4 0.0
20/02:30pm 19.8 20.2 18.1 90 1.1 E 13 20 7 11 1003.1 1002.7 0.0
20/02:00pm 19.1 18.0 17.2 89 1.2 ENE 19 26 10 14 1003.7 1003.3 0.0
20/01:30pm 19.9 19.0 16.9 83 1.8 E 17 26 9 14 1003.4 1003.0 0.0
20/01:00pm 20.3 20.1 17.7 85 1.6 E 15 24 8 13 1003.6 1003.2 0.0
20/12:30pm 19.4 18.0 16.6 84 1.7 E 19 28 10 15 1003.9 1003.5 0.0
20/12:00pm 20.3 18.8 17.7 85 1.6 ESE 22 33 12 18 1004.0 1003.6 0.0
20/11:30am 20.6 19.1 17.8 84 1.7 E 22 35 12 19 1004.3 1003.9 0.0
20/11:00am 19.9 18.2 17.3 85 1.6 ESE 22 32 12 17 1004.1 1003.7 0.0
20/10:30am 19.8 19.0 17.9 89 1.2 E 19 33 10 18 1004.2 1003.8 0.0

Other formats

Comma delimited format used in spreadsheet applications
http://www.bom.gov.au/fwo/IDV60801/IDV60801.99806.axf

JavaScript Object Notation format (JSON) in row-major order
http://www.bom.gov.au/fwo/IDV60801/IDV60801.99806.json

Data quality

Most of these data are generated automatically and are frequently updated. Quality checks on data are not normally performed. It is possible for incorrect values to appear. Refer to information at About Latest Weather Observations and please check the disclaimer before using these data.